createdAt,value
2016-01-29T00:00:35.495Z,2.2
2016-01-29T00:01:35.435Z,2.2
2016-01-29T00:02:35.376Z,2.3
2016-01-29T00:03:35.332Z,2.3
2016-01-29T00:04:35.271Z,2.4
2016-01-29T00:05:35.200Z,2.3
2016-01-29T00:06:35.188Z,2.3
2016-01-29T00:07:35.096Z,2.3
2016-01-29T00:08:35.036Z,2.3
2016-01-29T00:09:34.977Z,2.3
2016-01-29T00:10:34.916Z,2.2
2016-01-29T00:11:34.936Z,2.3
2016-01-29T00:12:34.810Z,2.3
2016-01-29T00:13:34.751Z,2.3
2016-01-29T00:14:34.690Z,2.3
2016-01-29T00:15:34.645Z,2.2
2016-01-29T00:16:34.587Z,2.4
2016-01-29T00:17:34.527Z,2.5
2016-01-29T00:18:34.468Z,2.5
2016-01-29T00:19:34.408Z,2.4
2016-01-29T00:20:34.349Z,2.4
2016-01-29T00:21:34.289Z,2.3
2016-01-29T00:22:34.229Z,2.3
2016-01-29T00:23:34.186Z,2.3
2016-01-29T00:24:34.125Z,2.3
2016-01-29T00:25:34.067Z,2.4
2016-01-29T00:26:34.009Z,2.3
2016-01-29T00:27:33.964Z,2.4
2016-01-29T00:28:33.888Z,2.3
2016-01-29T00:29:33.831Z,2.4
2016-01-29T00:30:33.772Z,2.4
2016-01-29T00:31:33.716Z,2.4
2016-01-29T00:32:33.671Z,2.4
2016-01-29T00:33:33.611Z,2.1
2016-01-29T00:34:33.552Z,2.1
2016-01-29T00:35:33.497Z,2
2016-01-29T00:36:33.437Z,2.1
2016-01-29T00:37:33.379Z,2.1
2016-01-29T00:38:33.335Z,2.2
2016-01-29T00:39:33.262Z,2.2
2016-01-29T00:40:33.218Z,2.1
2016-01-29T00:41:33.143Z,2.3
2016-01-29T00:42:33.098Z,2.4
2016-01-29T00:43:33.040Z,2.5
2016-01-29T00:44:32.979Z,2.6
2016-01-29T00:45:32.919Z,2.6
2016-01-29T00:46:32.860Z,2.6
2016-01-29T00:47:32.801Z,2.6
2016-01-29T00:48:32.757Z,2.5
2016-01-29T00:49:32.696Z,2.5
2016-01-29T00:50:32.638Z,2.4
2016-01-29T00:51:32.580Z,2.4
2016-01-29T00:52:32.520Z,2.4
2016-01-29T00:53:32.460Z,2.5
2016-01-29T00:54:32.401Z,2.5
2016-01-29T00:55:32.340Z,2.5
2016-01-29T00:56:32.296Z,2.7
2016-01-29T00:57:32.235Z,2.7
2016-01-29T00:58:32.175Z,2.6
2016-01-29T00:59:32.117Z,2.6
2016-01-29T01:00:32.056Z,2.6
2016-01-29T01:01:31.997Z,2.6
2016-01-29T01:02:31.952Z,2.4
2016-01-29T01:03:31.893Z,2.4
2016-01-29T01:04:31.834Z,2.4
2016-01-29T01:05:31.773Z,2.4
2016-01-29T01:06:31.714Z,2.5
2016-01-29T01:07:31.671Z,2.6
2016-01-29T01:08:31.596Z,2.6
2016-01-29T01:09:31.551Z,2.7
2016-01-29T01:10:31.491Z,2.7
2016-01-29T01:11:31.465Z,2.6
2016-01-29T01:12:31.373Z,2.6
2016-01-29T01:13:31.314Z,2.6
2016-01-29T01:14:31.254Z,2.5
2016-01-29T01:15:31.213Z,2.3
2016-01-29T01:16:31.136Z,2.4
2016-01-29T01:17:31.093Z,2.5
2016-01-29T01:18:31.032Z,2.6
2016-01-29T01:19:30.973Z,2.6
2016-01-29T01:20:30.913Z,2.6
2016-01-29T01:21:30.854Z,2.7
2016-01-29T01:22:30.810Z,2.7
2016-01-29T01:23:30.735Z,2.8
2016-01-29T01:24:30.676Z,2.7
2016-01-29T01:25:30.631Z,2.7
2016-01-29T01:26:30.573Z,2.8
2016-01-29T01:27:30.512Z,2.8
2016-01-29T01:28:30.453Z,2.9
2016-01-29T01:29:30.409Z,2.9
2016-01-29T01:30:30.349Z,2.8
2016-01-29T01:31:30.290Z,2.8
2016-01-29T01:32:30.231Z,2.7
2016-01-29T01:33:30.171Z,2.7
2016-01-29T01:34:30.127Z,2.7
2016-01-29T01:35:30.067Z,2.6
2016-01-29T01:36:30.008Z,2.6
2016-01-29T01:37:29.948Z,2.6
2016-01-29T01:38:29.888Z,2.6
2016-01-29T01:39:29.828Z,2.7
2016-01-29T01:40:29.769Z,2.7
2016-01-29T01:41:29.710Z,2.8
2016-01-29T01:42:29.650Z,2.9
2016-01-29T01:43:29.606Z,2.9
2016-01-29T01:44:29.547Z,3.1
2016-01-29T01:45:29.488Z,3.1
2016-01-29T01:46:29.428Z,3.1
2016-01-29T01:47:29.368Z,3.1
2016-01-29T01:48:29.327Z,3.1
2016-01-29T01:49:29.267Z,3.2
2016-01-29T01:50:29.207Z,3.1
2016-01-29T01:51:29.147Z,3
2016-01-29T01:52:29.088Z,2.9
2016-01-29T01:53:29.043Z,3
2016-01-29T01:54:28.999Z,3
2016-01-29T01:55:28.924Z,3.1
2016-01-29T01:56:28.865Z,3
2016-01-29T01:57:28.837Z,3
2016-01-29T01:58:28.778Z,3
2016-01-29T01:59:28.703Z,3.1
2016-01-29T02:00:28.642Z,3.1
2016-01-29T02:01:28.584Z,3.2
2016-01-29T02:02:28.523Z,3.3
2016-01-29T02:03:28.483Z,3.3
2016-01-29T02:04:28.425Z,3.3
2016-01-29T02:05:28.365Z,3.4
2016-01-29T02:06:28.305Z,3.4
2016-01-29T02:07:28.245Z,3.4
2016-01-29T02:08:28.201Z,3.4
2016-01-29T02:09:28.142Z,3.3
2016-01-29T02:10:28.085Z,3.3
2016-01-29T02:11:28.026Z,3.2
2016-01-29T02:12:27.966Z,3.2
2016-01-29T02:13:27.922Z,3.2
2016-01-29T02:14:27.847Z,3.3
2016-01-29T02:15:27.802Z,3.2
2016-01-29T02:16:27.744Z,3.2
2016-01-29T02:17:27.683Z,3.1
2016-01-29T02:18:27.625Z,3.2
2016-01-29T02:19:27.565Z,3.1
2016-01-29T02:20:27.505Z,3.2
2016-01-29T02:21:27.461Z,3.2
2016-01-29T02:22:27.401Z,3.2
2016-01-29T02:23:27.342Z,3
2016-01-29T02:24:27.282Z,3
2016-01-29T02:25:27.238Z,2.8
2016-01-29T02:26:27.180Z,2.8
2016-01-29T02:27:27.119Z,2.7
2016-01-29T02:28:27.060Z,2.7
2016-01-29T02:29:27.001Z,2.7
2016-01-29T02:30:26.943Z,2.7
2016-01-29T02:31:26.883Z,2.6
2016-01-29T02:32:26.824Z,2.5
2016-01-29T02:33:26.779Z,2.5
2016-01-29T02:34:26.706Z,2.6
2016-01-29T02:35:26.645Z,2.6
2016-01-29T02:36:26.602Z,2.5
2016-01-29T02:37:26.542Z,2.6
2016-01-29T02:38:26.482Z,2.6
2016-01-29T02:39:26.423Z,2.7
2016-01-29T02:40:26.379Z,2.8
2016-01-29T02:41:26.319Z,2.9
2016-01-29T02:42:26.261Z,3
2016-01-29T02:43:26.200Z,3
2016-01-29T02:44:26.157Z,3
2016-01-29T02:45:26.081Z,3
2016-01-29T02:46:26.022Z,3
2016-01-29T02:47:25.978Z,3
2016-01-29T02:48:25.918Z,3
2016-01-29T02:49:25.858Z,3.1
2016-01-29T02:50:25.800Z,3.1
2016-01-29T02:51:25.740Z,3.1
2016-01-29T02:52:25.695Z,3.1
2016-01-29T02:53:25.636Z,3.1
2016-01-29T02:54:25.577Z,3.1
2016-01-29T02:55:25.517Z,3.2
2016-01-29T02:56:25.489Z,3.2
2016-01-29T02:57:25.414Z,3.2
2016-01-29T02:58:25.356Z,3.2
2016-01-29T02:59:25.295Z,3.2
2016-01-29T03:00:25.236Z,3.1
2016-01-29T03:01:25.176Z,3.2
2016-01-29T03:02:25.121Z,3.2
2016-01-29T03:03:25.060Z,3.1
2016-01-29T03:04:25.017Z,3.1
2016-01-29T03:05:24.957Z,3.1
2016-01-29T03:06:24.898Z,3
2016-01-29T03:07:24.839Z,3.1
2016-01-29T03:08:24.795Z,3.1
2016-01-29T03:09:24.734Z,2.9
2016-01-29T03:10:24.691Z,2.9
2016-01-29T03:11:24.649Z,2.9
2016-01-29T03:12:24.557Z,2.9
2016-01-29T03:13:24.497Z,2.9
2016-01-29T03:14:24.441Z,2.9
2016-01-29T03:15:24.380Z,3
2016-01-29T03:16:24.336Z,3
2016-01-29T03:17:24.277Z,3
2016-01-29T03:18:24.218Z,2.9
2016-01-29T03:19:24.159Z,2.7
2016-01-29T03:20:24.098Z,2.7
2016-01-29T03:21:24.054Z,2.7
2016-01-29T03:22:23.997Z,2.5
2016-01-29T03:23:23.937Z,2.5
2016-01-29T03:24:23.908Z,2.6
2016-01-29T03:25:23.849Z,2.5
2016-01-29T03:26:23.789Z,2.3
2016-01-29T03:27:23.729Z,2
2016-01-29T03:28:23.645Z,2.2
2016-01-29T03:29:23.601Z,2.2
2016-01-29T03:30:23.540Z,2.3
2016-01-29T03:31:23.481Z,2.3
2016-01-29T03:32:23.421Z,2.4
2016-01-29T03:33:23.362Z,2.5
2016-01-29T03:34:23.318Z,2.5
2016-01-29T03:35:23.257Z,2.5
2016-01-29T03:36:23.199Z,2.5
2016-01-29T03:37:23.139Z,2.5
2016-01-29T03:38:23.081Z,2.6
2016-01-29T03:39:23.021Z,2.6
2016-01-29T03:40:22.977Z,2.5
2016-01-29T03:41:22.918Z,2.6
2016-01-29T03:42:22.874Z,2.5
2016-01-29T03:43:22.799Z,2.6
2016-01-29T03:44:22.739Z,2.4
2016-01-29T03:45:22.727Z,2.5
2016-01-29T03:46:22.620Z,2.5
2016-01-29T03:47:22.576Z,2.5
2016-01-29T03:48:22.516Z,2.5
2016-01-29T03:49:22.459Z,2.6
2016-01-29T03:50:22.399Z,2.6
2016-01-29T03:51:22.340Z,2.7
2016-01-29T03:52:22.280Z,2.7
2016-01-29T03:53:22.226Z,2.8
2016-01-29T03:54:22.166Z,2.7
2016-01-29T03:55:22.123Z,2.7
2016-01-29T03:56:22.079Z,2.7
2016-01-29T03:57:22.003Z,2.6
2016-01-29T03:58:21.960Z,2.6
2016-01-29T03:59:21.884Z,2.5
2016-01-29T04:00:21.856Z,2.5
2016-01-29T04:01:21.768Z,2.6
2016-01-29T04:02:21.723Z,2.6
2016-01-29T04:03:21.665Z,2.7
2016-01-29T04:04:21.604Z,2.7
2016-01-29T04:05:21.545Z,2.6
2016-01-29T04:06:21.502Z,2.6
2016-01-29T04:07:21.441Z,2.5
2016-01-29T04:08:21.382Z,2.5
2016-01-29T04:09:21.322Z,2.5
2016-01-29T04:10:21.263Z,2.6
2016-01-29T04:11:21.219Z,2.5
2016-01-29T04:12:21.158Z,2.6
2016-01-29T04:13:21.102Z,2.5
2016-01-29T04:14:21.041Z,2.5
2016-01-29T04:15:20.982Z,2.5
2016-01-29T04:16:20.921Z,2.4
2016-01-29T04:17:20.862Z,2.3
2016-01-29T04:18:20.819Z,2.3
2016-01-29T04:19:20.758Z,2.3
2016-01-29T04:20:20.699Z,2.4
2016-01-29T04:21:20.640Z,2.4
2016-01-29T04:22:20.580Z,2.5
2016-01-29T04:23:20.536Z,2.4
2016-01-29T04:24:20.476Z,2.4
2016-01-29T04:25:20.418Z,2.2
2016-01-29T04:26:20.357Z,2.1
2016-01-29T04:27:20.298Z,2.1
2016-01-29T04:28:20.242Z,2.1
2016-01-29T04:29:20.183Z,2.1
2016-01-29T04:30:20.154Z,2.2
2016-01-29T04:31:20.064Z,2.1
2016-01-29T04:32:20.004Z,2.3
2016-01-29T04:33:19.945Z,2.4
2016-01-29T04:34:19.900Z,2.4
2016-01-29T04:35:19.841Z,2.5
2016-01-29T04:36:19.781Z,2.5
2016-01-29T04:37:19.722Z,2.4
2016-01-29T04:38:19.678Z,2.5
2016-01-29T04:39:19.602Z,2.4
2016-01-29T04:40:19.543Z,2.6
2016-01-29T04:41:19.482Z,2.5
2016-01-29T04:42:19.439Z,2.4
2016-01-29T04:43:19.380Z,2.3
2016-01-29T04:44:19.319Z,2.4
2016-01-29T04:45:19.261Z,2.4
2016-01-29T04:46:19.201Z,2.5
2016-01-29T04:47:19.142Z,2.4
2016-01-29T04:48:19.097Z,2.5
2016-01-29T04:49:19.053Z,2.4
2016-01-29T04:50:18.978Z,2.5
2016-01-29T04:51:18.918Z,2.5
2016-01-29T04:52:18.858Z,2.5
2016-01-29T04:53:18.799Z,2.5
2016-01-29T04:54:18.739Z,2.5
2016-01-29T04:55:18.694Z,2.2
2016-01-29T04:56:18.635Z,2.2
2016-01-29T04:57:18.575Z,2.2
2016-01-29T04:58:18.515Z,2.2
2016-01-29T04:59:18.462Z,2.2
2016-01-29T05:00:18.402Z,2.3
2016-01-29T05:01:18.358Z,2.4
2016-01-29T05:02:18.282Z,2.4
2016-01-29T05:03:18.222Z,2.3
2016-01-29T05:04:18.179Z,2.3
2016-01-29T05:05:18.119Z,2.4
2016-01-29T05:06:18.059Z,2.3
2016-01-29T05:07:17.985Z,2.4
2016-01-29T05:08:17.940Z,2.5
2016-01-29T05:09:17.881Z,2.6
2016-01-29T05:10:17.820Z,2.6
2016-01-29T05:11:17.777Z,2.6
2016-01-29T05:12:17.702Z,2.6
2016-01-29T05:13:17.642Z,2.7
2016-01-29T05:14:17.583Z,2.7
2016-01-29T05:15:17.540Z,2.7
2016-01-29T05:16:17.481Z,2.5
2016-01-29T05:17:17.420Z,2.5
2016-01-29T05:18:17.361Z,2.4
2016-01-29T05:19:17.317Z,2.4
2016-01-29T05:20:17.258Z,2.5
2016-01-29T05:21:17.199Z,2.6
2016-01-29T05:22:17.139Z,2.6
2016-01-29T05:23:17.079Z,2.4
2016-01-29T05:24:17.021Z,2.3
2016-01-29T05:25:16.961Z,2.3
2016-01-29T05:26:16.901Z,2.3
2016-01-29T05:27:16.841Z,2.2
2016-01-29T05:28:16.799Z,2.2
2016-01-29T05:29:16.754Z,2.2
2016-01-29T05:30:16.676Z,2.3
2016-01-29T05:31:16.609Z,2.3
2016-01-29T05:32:16.550Z,2.3
2016-01-29T05:33:16.490Z,2.4
2016-01-29T05:34:16.431Z,2.3
2016-01-29T05:35:16.386Z,2.4
2016-01-29T05:36:16.328Z,2.3
2016-01-29T05:37:16.268Z,2.2
2016-01-29T05:38:16.208Z,2.2
2016-01-29T05:39:16.179Z,2.3
2016-01-29T05:40:16.091Z,2.4
2016-01-29T05:41:16.032Z,2.4
2016-01-29T05:42:15.972Z,2.4
2016-01-29T05:43:15.912Z,2.4
2016-01-29T05:44:15.871Z,2.4
2016-01-29T05:45:15.795Z,2.5
2016-01-29T05:46:15.750Z,2.5
2016-01-29T05:47:15.691Z,2.6
2016-01-29T05:48:15.631Z,2.6
2016-01-29T05:49:15.572Z,2.6
2016-01-29T05:50:15.512Z,2.5
2016-01-29T05:51:15.531Z,2.5
2016-01-29T05:52:15.410Z,2.5
2016-01-29T05:53:15.350Z,2.5
2016-01-29T05:54:15.290Z,2.5
2016-01-29T05:55:15.261Z,2.6
2016-01-29T05:56:15.172Z,2.6
2016-01-29T05:57:15.113Z,2.6
2016-01-29T05:58:15.069Z,2.6
2016-01-29T05:59:15.009Z,2.7
2016-01-29T06:00:14.950Z,2.7
2016-01-29T06:01:14.891Z,2.8
2016-01-29T06:02:14.832Z,2.7
2016-01-29T06:03:14.779Z,2.7
2016-01-29T06:04:14.719Z,2.7
2016-01-29T06:05:14.659Z,2.5
2016-01-29T06:06:14.618Z,2.6
2016-01-29T06:07:14.559Z,2.5
2016-01-29T06:08:14.500Z,2.5
2016-01-29T06:09:14.440Z,2.5
2016-01-29T06:10:14.380Z,2.6
2016-01-29T06:11:14.321Z,2.5
2016-01-29T06:12:14.279Z,2.4
2016-01-29T06:13:14.219Z,2.4
2016-01-29T06:14:14.160Z,2.5
2016-01-29T06:15:14.100Z,2.4
2016-01-29T06:16:14.041Z,2.4
2016-01-29T06:17:13.980Z,2.5
2016-01-29T06:18:13.921Z,2.6
2016-01-29T06:19:13.877Z,2.4
2016-01-29T06:20:13.817Z,2.3
2016-01-29T06:21:13.757Z,2.3
2016-01-29T06:22:13.702Z,2.3
2016-01-29T06:23:13.643Z,2.3
2016-01-29T06:24:13.598Z,2.3
2016-01-29T06:25:13.538Z,2.3
2016-01-29T06:26:13.479Z,2.5
2016-01-29T06:27:13.420Z,2.5
2016-01-29T06:28:13.360Z,2.5
2016-01-29T06:29:13.315Z,2.6
2016-01-29T06:30:13.260Z,2.4
2016-01-29T06:31:13.185Z,2.2
2016-01-29T06:32:13.128Z,2
2016-01-29T06:33:13.084Z,1.9
2016-01-29T06:34:13.025Z,1.8
2016-01-29T06:35:12.968Z,1.8
2016-01-29T06:36:12.907Z,1.8
2016-01-29T06:37:12.848Z,1.9
2016-01-29T06:38:12.788Z,2
2016-01-29T06:39:12.730Z,2
2016-01-29T06:40:12.669Z,2.1
2016-01-29T06:41:12.625Z,2.2
2016-01-29T06:42:12.566Z,2.3
2016-01-29T06:43:12.507Z,2.3
2016-01-29T06:44:12.447Z,2.3
2016-01-29T06:45:12.387Z,2.3
2016-01-29T06:46:12.343Z,2.4
2016-01-29T06:47:12.269Z,2.5
2016-01-29T06:48:12.224Z,2.5
2016-01-29T06:49:12.164Z,2.6
2016-01-29T06:50:12.105Z,2.7
2016-01-29T06:51:12.048Z,2.7
2016-01-29T06:52:12.003Z,2.7
2016-01-29T06:53:11.944Z,2.7
2016-01-29T06:54:11.884Z,2.7
2016-01-29T06:55:11.825Z,2.6
2016-01-29T06:56:11.765Z,2.7
2016-01-29T06:57:11.705Z,2.6
2016-01-29T06:58:11.709Z,2.5
2016-01-29T06:59:11.602Z,2.5
2016-01-29T07:00:11.543Z,2.6
2016-01-29T07:01:11.482Z,2.6
2016-01-29T07:02:11.424Z,2.6
2016-01-29T07:03:11.365Z,2.4
2016-01-29T07:04:11.305Z,2.3
2016-01-29T07:05:11.261Z,2.2
2016-01-29T07:06:11.233Z,2.3
2016-01-29T07:07:11.142Z,2.3
2016-01-29T07:08:11.081Z,2.4
2016-01-29T07:09:11.038Z,2.5
2016-01-29T07:10:10.978Z,2.6
2016-01-29T07:11:10.934Z,2.7
2016-01-29T07:12:10.859Z,2.7
2016-01-29T07:13:10.798Z,2.8
2016-01-29T07:14:10.740Z,2.9
2016-01-29T07:15:10.681Z,2.9
2016-01-29T07:16:10.637Z,3
2016-01-29T07:17:10.576Z,3.1
2016-01-29T07:18:10.517Z,3.1
2016-01-29T07:19:10.480Z,3
2016-01-29T07:20:10.403Z,3.1
2016-01-29T07:21:10.360Z,3.1
2016-01-29T07:22:10.300Z,3.2
2016-01-29T07:23:10.242Z,3.2
2016-01-29T07:24:10.181Z,3.3
2016-01-29T07:25:10.122Z,3.3
2016-01-29T07:26:10.078Z,3.3
2016-01-29T07:27:10.003Z,3.3
2016-01-29T07:28:09.959Z,3.4
2016-01-29T07:29:09.899Z,3.5
2016-01-29T07:30:09.840Z,3.5
2016-01-29T07:31:09.779Z,3.5
2016-01-29T07:32:09.735Z,3.7
2016-01-29T07:33:09.675Z,3.8
2016-01-29T07:34:09.609Z,4
2016-01-29T07:35:09.614Z,4.1
2016-01-29T07:36:09.508Z,4.2
2016-01-29T07:37:09.448Z,4.4
2016-01-29T07:38:09.388Z,4.6
2016-01-29T07:39:09.328Z,4.5
2016-01-29T07:40:09.268Z,4.8
2016-01-29T07:41:09.208Z,5
2016-01-29T07:42:09.168Z,5.3
2016-01-29T07:43:09.124Z,5.2
2016-01-29T07:44:09.048Z,4.9
2016-01-29T07:45:08.988Z,4.7
2016-01-29T07:46:08.929Z,4.7
2016-01-29T07:47:08.885Z,4.8
2016-01-29T07:48:08.831Z,4.7
2016-01-29T07:49:08.770Z,4.4
2016-01-29T07:50:08.712Z,4.2
2016-01-29T07:51:08.651Z,4.2
2016-01-29T07:52:08.592Z,4
2016-01-29T07:53:08.547Z,4
2016-01-29T07:54:08.489Z,3.9
2016-01-29T07:55:08.429Z,3.9
2016-01-29T07:56:08.370Z,3.9
2016-01-29T07:57:08.326Z,3.8
2016-01-29T07:58:08.266Z,3.8
2016-01-29T07:59:08.207Z,3.8
2016-01-29T08:00:08.147Z,3.8
2016-01-29T08:01:08.086Z,3.8
2016-01-29T08:02:08.043Z,4.3
2016-01-29T08:03:07.983Z,4.8
2016-01-29T08:04:07.923Z,5.3
2016-01-29T08:05:07.862Z,5.7
2016-01-29T08:06:07.819Z,5.6
2016-01-29T08:07:07.776Z,5.6
2016-01-29T08:08:07.700Z,5.4
2016-01-29T08:09:07.640Z,5.3
2016-01-29T08:10:07.600Z,4.9
2016-01-29T08:11:07.540Z,4.8
2016-01-29T08:12:07.480Z,4.8
2016-01-29T08:13:07.420Z,4.9
2016-01-29T08:14:07.365Z,4.8
2016-01-29T08:15:07.305Z,4.7
2016-01-29T08:16:07.245Z,4.8
2016-01-29T08:17:07.201Z,5
2016-01-29T08:18:07.141Z,5
2016-01-29T08:19:07.083Z,5.1
2016-01-29T08:20:07.022Z,5
2016-01-29T08:21:06.979Z,4.9
2016-01-29T08:22:06.907Z,5
2016-01-29T08:23:06.862Z,5.1
2016-01-29T08:24:06.819Z,5.2
2016-01-29T08:25:06.742Z,5.2
2016-01-29T08:26:06.685Z,5.1
2016-01-29T08:27:06.640Z,5.2
2016-01-29T08:28:06.581Z,5.1
2016-01-29T08:29:06.520Z,5
2016-01-29T08:30:06.462Z,5
2016-01-29T08:31:06.402Z,5
2016-01-29T08:32:06.354Z,4.9
2016-01-29T08:33:06.295Z,4.9
2016-01-29T08:34:06.235Z,4.9
2016-01-29T08:35:06.177Z,4.9
2016-01-29T08:36:06.116Z,4.8
2016-01-29T08:37:06.071Z,4.7
2016-01-29T08:38:06.013Z,4.9
2016-01-29T08:39:05.954Z,5
2016-01-29T08:40:05.895Z,5.1
2016-01-29T08:41:05.834Z,5.3
2016-01-29T08:42:05.786Z,5.3
2016-01-29T08:43:05.715Z,5.4
2016-01-29T08:44:05.641Z,5.6
2016-01-29T08:45:05.584Z,5.6
2016-01-29T08:46:05.510Z,5.4
2016-01-29T08:47:05.440Z,5.6
2016-01-29T08:48:05.392Z,5.8
2016-01-29T08:49:05.310Z,5.9
2016-01-29T08:50:05.263Z,5.7
2016-01-29T08:51:05.199Z,5.8
2016-01-29T08:52:05.136Z,5.8
2016-01-29T08:53:05.073Z,5.7
2016-01-29T08:54:05.027Z,5.7
2016-01-29T08:55:04.966Z,5.8
2016-01-29T08:56:04.903Z,6
2016-01-29T08:57:04.842Z,6
2016-01-29T08:58:04.782Z,6.1
2016-01-29T08:59:04.738Z,5.9
2016-01-29T09:00:04.679Z,5.8
2016-01-29T09:01:04.618Z,6
2016-01-29T09:02:04.558Z,6.1
2016-01-29T09:03:04.504Z,6.3
2016-01-29T09:04:04.460Z,6.2
2016-01-29T09:05:04.415Z,6
2016-01-29T09:06:04.339Z,6
2016-01-29T09:07:04.311Z,6.2
2016-01-29T09:08:04.236Z,6.4
2016-01-29T09:09:04.175Z,6.5
2016-01-29T09:10:04.116Z,6.6
2016-01-29T09:11:04.056Z,6.7
2016-01-29T09:12:03.996Z,6.8
2016-01-29T09:13:03.955Z,6.5
2016-01-29T09:14:03.898Z,6.7
2016-01-29T09:15:03.840Z,6.7
2016-01-29T09:16:03.779Z,6.6
2016-01-29T09:17:03.722Z,6.9
2016-01-29T09:18:03.679Z,6.8
2016-01-29T09:19:03.618Z,6.7
2016-01-29T09:20:03.549Z,6.8
2016-01-29T09:21:03.504Z,6.8
2016-01-29T09:22:03.446Z,6.8
2016-01-29T09:23:03.401Z,6.6
2016-01-29T09:24:03.325Z,6.6
2016-01-29T09:25:03.281Z,6.8
2016-01-29T09:26:03.223Z,6.8
2016-01-29T09:27:03.164Z,6.8
2016-01-29T09:28:03.103Z,6.8
2016-01-29T09:29:03.044Z,6.6
2016-01-29T09:30:02.985Z,6.7
2016-01-29T09:31:02.941Z,6.8
2016-01-29T09:32:02.899Z,6.7
2016-01-29T09:33:02.824Z,6.8
2016-01-29T09:34:02.782Z,6.7
2016-01-29T09:35:02.707Z,6.7
2016-01-29T09:36:02.648Z,6.8
2016-01-29T09:37:02.603Z,6.7
2016-01-29T09:38:02.545Z,6.8
2016-01-29T09:39:02.485Z,6.9
2016-01-29T09:40:02.440Z,6.8
2016-01-29T09:41:02.381Z,6.6
2016-01-29T09:42:02.324Z,6.5
2016-01-29T09:43:02.264Z,6.5
2016-01-29T09:44:02.204Z,6.4
2016-01-29T09:45:02.160Z,6.4
2016-01-29T09:46:02.119Z,6.4
2016-01-29T09:47:02.043Z,6.3
2016-01-29T09:48:01.984Z,6.4
2016-01-29T09:49:01.924Z,6.6
2016-01-29T09:50:01.865Z,6.7
2016-01-29T09:51:01.822Z,6.8
2016-01-29T09:52:01.762Z,7
2016-01-29T09:53:01.702Z,7
2016-01-29T09:54:01.662Z,7.2
2016-01-29T09:55:01.586Z,7.3
2016-01-29T09:56:01.542Z,7.3
2016-01-29T09:57:01.481Z,7.3
2016-01-29T09:58:01.423Z,7.4
2016-01-29T09:59:01.363Z,7.8
2016-01-29T10:00:01.318Z,7.9
2016-01-29T10:01:01.260Z,8.1
2016-01-29T10:02:01.216Z,8.1
2016-01-29T10:03:01.147Z,8
2016-01-29T10:04:01.087Z,7.8
2016-01-29T10:05:01.028Z,8
2016-01-29T10:06:00.985Z,8
2016-01-29T10:07:00.924Z,8
2016-01-29T10:08:00.865Z,8.1
2016-01-29T10:09:00.804Z,8.3
2016-01-29T10:10:00.761Z,8.4
2016-01-29T10:11:00.701Z,8.7
2016-01-29T10:12:00.673Z,8.8
2016-01-29T10:13:00.596Z,8.9
2016-01-29T10:14:00.537Z,8.8
2016-01-29T10:15:00.493Z,8.4
2016-01-29T10:16:00.433Z,8.4
2016-01-29T10:17:00.375Z,8.3
2016-01-29T10:18:00.315Z,8.4
2016-01-29T10:19:00.257Z,8.6
2016-01-29T10:20:00.212Z,8.5
2016-01-29T10:21:00.153Z,8.3
2016-01-29T10:22:00.109Z,8.5
2016-01-29T10:23:00.066Z,8.4
2016-01-29T10:23:59.990Z,8.6
2016-01-29T10:24:59.945Z,8.6
2016-01-29T10:25:59.886Z,8.6
2016-01-29T10:26:59.826Z,8.7
2016-01-29T10:27:59.782Z,8.5
2016-01-29T10:28:59.721Z,8.6
2016-01-29T10:29:59.662Z,8.7
2016-01-29T10:30:59.618Z,8.6
2016-01-29T10:31:59.559Z,8.7
2016-01-29T10:32:59.500Z,8.6
2016-01-29T10:33:59.441Z,8.6
2016-01-29T10:34:59.398Z,8.5
2016-01-29T10:35:59.337Z,8.6
2016-01-29T10:36:59.282Z,8.6
2016-01-29T10:37:59.222Z,8.3
2016-01-29T10:38:59.225Z,8.5
2016-01-29T10:39:59.149Z,8.5
2016-01-29T10:40:59.058Z,8.6
2016-01-29T10:41:59.015Z,8.7
2016-01-29T10:42:58.955Z,8.8
2016-01-29T10:43:58.895Z,9
2016-01-29T10:44:58.851Z,9.1
2016-01-29T10:45:58.793Z,9.3
2016-01-29T10:46:58.748Z,9.3
2016-01-29T10:47:58.687Z,9.3
2016-01-29T10:48:58.629Z,9.5
2016-01-29T10:49:58.569Z,9.4
2016-01-29T10:50:58.526Z,9.7
2016-01-29T10:51:58.465Z,9.7
2016-01-29T10:52:58.408Z,9.8
2016-01-29T10:53:58.363Z,10
2016-01-29T10:54:58.319Z,9.6
2016-01-29T10:55:58.274Z,9.6
2016-01-29T10:56:58.198Z,9.8
2016-01-29T10:57:58.140Z,9.6
2016-01-29T10:58:58.095Z,9.8
2016-01-29T10:59:58.052Z,9.7
2016-01-29T11:00:57.975Z,9.4
2016-01-29T11:01:57.933Z,9.7
2016-01-29T11:02:57.873Z,9.8
2016-01-29T11:03:57.833Z,9.8
2016-01-29T11:04:57.774Z,10.1
2016-01-29T11:05:57.718Z,10.4
2016-01-29T11:06:57.658Z,10.4
2016-01-29T11:07:57.614Z,10.2
2016-01-29T11:08:57.554Z,9.9
2016-01-29T11:09:57.496Z,9.9
2016-01-29T11:10:57.452Z,9.9
2016-01-29T11:11:57.391Z,9.6
2016-01-29T11:12:57.347Z,9.8
2016-01-29T11:13:57.291Z,9.7
2016-01-29T11:14:57.230Z,9.7
2016-01-29T11:15:57.171Z,9.8
2016-01-29T11:16:57.111Z,9.7
2016-01-29T11:17:57.068Z,9.5
2016-01-29T11:18:57.008Z,9.3
2016-01-29T11:19:56.963Z,9.3
2016-01-29T11:20:56.903Z,9.5
2016-01-29T11:21:56.862Z,9.6
2016-01-29T11:22:56.803Z,9.5
2016-01-29T11:23:56.742Z,9.9
2016-01-29T11:24:56.683Z,10
2016-01-29T11:25:56.640Z,10.3
2016-01-29T11:26:56.580Z,10.4
2016-01-29T11:27:56.551Z,10.3
2016-01-29T11:28:56.476Z,10.4
2016-01-29T11:29:56.420Z,10.6
2016-01-29T11:30:56.359Z,9.8
2016-01-29T11:31:56.315Z,9.7
2016-01-29T11:32:56.256Z,9.6
2016-01-29T11:33:56.204Z,9.8
2016-01-29T11:34:56.145Z,9.7
2016-01-29T11:35:56.101Z,9.9
2016-01-29T11:36:56.041Z,9.9
2016-01-29T11:37:55.982Z,10
2016-01-29T11:38:55.938Z,9.9
2016-01-29T11:39:55.877Z,9.7
2016-01-29T11:40:55.819Z,9.4
2016-01-29T11:41:55.774Z,9.6
2016-01-29T11:42:55.714Z,9.6
2016-01-29T11:43:55.655Z,9.8
2016-01-29T11:44:55.610Z,9.4
2016-01-29T11:45:55.552Z,9.4
2016-01-29T11:46:55.508Z,9.4
2016-01-29T11:47:55.448Z,9.4
2016-01-29T11:48:55.388Z,9.5
2016-01-29T11:49:55.329Z,9.6
2016-01-29T11:50:55.284Z,9.3
2016-01-29T11:51:55.225Z,9.2
2016-01-29T11:52:55.166Z,9.2
2016-01-29T11:53:55.121Z,9.3
2016-01-29T11:54:55.078Z,9.4
2016-01-29T11:55:55.002Z,9.3
2016-01-29T11:56:54.959Z,9.2
2016-01-29T11:57:54.915Z,9.4
2016-01-29T11:58:54.838Z,9.4
2016-01-29T11:59:54.795Z,9.4
2016-01-29T12:00:54.738Z,9.5
2016-01-29T12:01:54.678Z,9.5
2016-01-29T12:02:54.635Z,9.4
2016-01-29T12:03:54.575Z,9.4
2016-01-29T12:04:54.518Z,9.4
2016-01-29T12:05:54.458Z,9.3
2016-01-29T12:06:54.404Z,9.3
2016-01-29T12:07:54.335Z,9.3
2016-01-29T12:08:54.306Z,9.4
2016-01-29T12:09:54.235Z,9.4
2016-01-29T12:10:54.176Z,9.4
2016-01-29T12:11:54.148Z,9.3
2016-01-29T12:12:54.073Z,9.4
2016-01-29T12:13:54.028Z,9.4
2016-01-29T12:14:53.968Z,9.5
2016-01-29T12:15:53.908Z,9.5
2016-01-29T12:16:53.881Z,9.6
2016-01-29T12:17:53.805Z,9.5
2016-01-29T12:18:53.745Z,9.4
2016-01-29T12:19:53.689Z,9.4
2016-01-29T12:20:53.646Z,9.4
2016-01-29T12:21:53.586Z,9.3
2016-01-29T12:22:53.526Z,9.2
2016-01-29T12:23:53.482Z,9.2
2016-01-29T12:24:53.438Z,9.2
2016-01-29T12:25:53.362Z,9.2
2016-01-29T12:26:53.318Z,9.2
2016-01-29T12:27:53.259Z,9.2
2016-01-29T12:28:53.200Z,9.2
2016-01-29T12:29:53.155Z,9.2
2016-01-29T12:30:53.094Z,9.2
2016-01-29T12:31:53.037Z,9.2
2016-01-29T12:32:52.993Z,9.1
2016-01-29T12:33:52.923Z,9.1
2016-01-29T12:34:52.878Z,9.1
2016-01-29T12:35:52.835Z,9.1
2016-01-29T12:36:52.759Z,9.1
2016-01-29T12:37:52.714Z,9.1
2016-01-29T12:38:52.671Z,9.1
2016-01-29T12:39:52.595Z,9.2
2016-01-29T12:40:52.568Z,9.2
2016-01-29T12:41:52.494Z,9.2
2016-01-29T12:42:52.435Z,9.2
2016-01-29T12:43:52.391Z,9.3
2016-01-29T12:44:52.332Z,9.3
2016-01-29T12:45:52.307Z,9.2
2016-01-29T12:46:52.232Z,9.2
2016-01-29T12:47:52.173Z,9.2
2016-01-29T12:48:52.112Z,9.3
2016-01-29T12:49:52.054Z,9.2
2016-01-29T12:50:52.010Z,9.2
2016-01-29T12:51:51.949Z,9.3
2016-01-29T12:52:51.890Z,9.3
2016-01-29T12:53:51.862Z,9.3
2016-01-29T12:54:51.796Z,9.3
2016-01-29T12:55:51.738Z,9.3
2016-01-29T12:56:51.693Z,9.3
2016-01-29T12:57:51.633Z,9.3
2016-01-29T12:58:51.567Z,9.3
2016-01-29T12:59:51.522Z,9.3
2016-01-29T13:00:51.462Z,9.3
2016-01-29T13:01:51.402Z,9.4
2016-01-29T13:02:51.359Z,9.4
2016-01-29T13:03:51.295Z,9.4
2016-01-29T13:04:51.235Z,9.4
2016-01-29T13:05:51.190Z,9.4
2016-01-29T13:06:51.131Z,9.4
2016-01-29T13:07:51.070Z,9.4
2016-01-29T13:08:51.042Z,9.3
2016-01-29T13:09:50.967Z,9.4
2016-01-29T13:10:50.906Z,9.3
2016-01-29T13:11:50.864Z,9.3
2016-01-29T13:12:50.805Z,9.3
2016-01-29T13:13:50.760Z,9.3
2016-01-29T13:14:50.701Z,9.2
2016-01-29T13:15:50.641Z,9.2
2016-01-29T13:16:50.583Z,9.2
2016-01-29T13:17:50.538Z,9.2
2016-01-29T13:18:50.482Z,9.1
2016-01-29T13:19:50.422Z,9.2
2016-01-29T13:20:50.363Z,9.1
2016-01-29T13:21:50.303Z,9.1
2016-01-29T13:22:50.260Z,9.1
2016-01-29T13:23:50.199Z,9.1
2016-01-29T13:24:50.155Z,9.1
2016-01-29T13:25:50.096Z,9.1
2016-01-29T13:26:50.055Z,9.1
2016-01-29T13:27:49.995Z,9.1
2016-01-29T13:28:49.935Z,9
2016-01-29T13:29:49.875Z,9
2016-01-29T13:30:49.816Z,9
2016-01-29T13:31:49.773Z,9
2016-01-29T13:32:49.728Z,9
2016-01-29T13:33:49.652Z,9
2016-01-29T13:34:49.608Z,9
2016-01-29T13:35:49.574Z,9
2016-01-29T13:36:49.498Z,9
2016-01-29T13:37:49.438Z,9
2016-01-29T13:38:49.379Z,9
2016-01-29T13:39:49.335Z,9
2016-01-29T13:40:49.288Z,9
2016-01-29T13:41:49.212Z,9
2016-01-29T13:42:49.168Z,9
2016-01-29T13:43:49.113Z,9.1
2016-01-29T13:44:49.053Z,9
2016-01-29T13:45:49.011Z,9
2016-01-29T13:46:48.967Z,9
2016-01-29T13:47:48.891Z,9
2016-01-29T13:48:48.833Z,9
2016-01-29T13:49:48.764Z,9